createdAt,value
2022-11-05T00:01:50.274Z,3.60
2022-11-05T00:04:35.804Z,4.25
2022-11-05T00:07:43.271Z,3.75
2022-11-05T00:10:19.718Z,3.65
2022-11-05T00:13:04.679Z,3.50
2022-11-05T00:15:49.907Z,3.78
2022-11-05T00:18:16.359Z,4.07
2022-11-05T00:20:42.820Z,4.03
2022-11-05T00:23:27.782Z,4.55
2022-11-05T00:25:55.334Z,3.70
2022-11-05T00:28:21.847Z,3.67
2022-11-05T00:30:48.781Z,3.90
2022-11-05T00:33:15.258Z,4.35
2022-11-05T00:35:41.819Z,3.50
2022-11-05T00:38:08.277Z,4.50
2022-11-05T00:40:35.402Z,3.88
2022-11-05T00:43:20.303Z,4.32
2022-11-05T00:45:46.711Z,3.88
2022-11-05T00:48:31.699Z,3.60
2022-11-05T00:50:58.125Z,4.50
2022-11-05T00:53:24.559Z,4.20
2022-11-05T00:55:51.207Z,4.18
2022-11-05T00:58:19.993Z,4.35
2022-11-05T01:00:51.873Z,4.50
2022-11-05T01:03:24.627Z,4.03
2022-11-05T01:05:54.208Z,4.82
2022-11-05T01:08:22.586Z,4.03
2022-11-05T01:10:51.597Z,4.53
2022-11-05T01:13:20.893Z,9.70
2022-11-05T01:18:14.155Z,4.00
2022-11-05T01:20:40.946Z,3.53
2022-11-05T01:23:13.013Z,4.75
2022-11-05T01:25:40.553Z,3.90
2022-11-05T01:28:08.905Z,4.88
2022-11-05T01:30:36.150Z,4.72
2022-11-05T01:33:03.479Z,4.25
2022-11-05T01:35:30.108Z,4.53
2022-11-05T01:37:56.536Z,4.50
2022-11-05T01:40:24.305Z,4.25
2022-11-05T01:42:51.036Z,4.22
2022-11-05T01:45:23.164Z,4.47
2022-11-05T01:48:04.149Z,4.15
2022-11-05T01:50:39.913Z,3.97
2022-11-05T01:53:20.302Z,3.97
2022-11-05T01:56:09.038Z,3.90
2022-11-05T01:58:48.671Z,3.78
2022-11-05T02:01:15.786Z,3.72
2022-11-05T02:03:43.492Z,3.97
2022-11-05T02:06:11.767Z,4.43
2022-11-05T02:08:53.273Z,3.55
2022-11-05T02:11:20.387Z,4.40
2022-11-05T02:13:48.815Z,4.10
2022-11-05T02:16:39.818Z,3.70
2022-11-05T02:19:06.252Z,4.03
2022-11-05T02:21:57.915Z,3.53
2022-11-05T02:24:51.896Z,4.15
2022-11-05T02:27:39.757Z,4.00
2022-11-05T02:30:17.965Z,3.78
2022-11-05T02:32:47.412Z,3.53
2022-11-05T02:37:52.327Z,2.92
2022-11-05T02:40:31.848Z,4.22
2022-11-05T02:43:15.223Z,3.45
2022-11-05T02:46:17.684Z,4.20
2022-11-05T02:48:52.118Z,3.58
2022-11-05T02:51:33.030Z,4.07
2022-11-05T02:54:12.570Z,3.53
2022-11-05T02:56:43.828Z,3.88
2022-11-05T02:59:10.288Z,3.10
2022-11-05T03:01:38.149Z,3.75
2022-11-05T03:04:08.090Z,4.30
2022-11-05T03:06:37.632Z,4.30
2022-11-05T03:09:31.972Z,4.53
2022-11-05T03:12:13.903Z,4.65
2022-11-05T03:15:14.577Z,3.72
2022-11-05T03:18:03.004Z,4.00
2022-11-05T03:20:35.382Z,4.28
2022-11-05T03:23:11.095Z,3.72
2022-11-05T03:25:43.791Z,3.63
2022-11-05T03:28:12.365Z,4.38
2022-11-05T03:30:40.943Z,4.10
2022-11-05T03:33:13.729Z,4.25
2022-11-05T03:35:46.692Z,4.20
2022-11-05T03:38:20.364Z,3.42
2022-11-05T03:40:51.906Z,4.30
2022-11-05T03:43:22.162Z,4.00
2022-11-05T03:45:56.132Z,3.60
2022-11-05T03:48:27.265Z,3.75
2022-11-05T03:51:08.874Z,3.58
2022-11-05T03:53:43.467Z,4.38
2022-11-05T03:56:42.807Z,3.45
2022-11-05T03:59:11.278Z,3.97
2022-11-05T04:01:38.900Z,3.53
2022-11-05T04:04:06.432Z,3.42
2022-11-05T04:06:51.487Z,3.67
2022-11-05T04:09:36.804Z,4.57
2022-11-05T04:12:21.911Z,3.28
2022-11-05T04:14:48.323Z,3.97
2022-11-05T04:17:14.747Z,3.95
2022-11-05T04:20:01.955Z,3.88
2022-11-05T04:22:50.794Z,3.63
2022-11-05T04:25:18.551Z,3.90
2022-11-05T04:27:45.921Z,3.72
2022-11-05T04:30:20.187Z,4.35
2022-11-05T04:32:56.678Z,4.65
2022-11-05T04:35:23.536Z,4.35
2022-11-05T04:37:50.001Z,3.58
2022-11-05T04:40:16.413Z,4.72
2022-11-05T04:42:42.826Z,4.35
2022-11-05T04:45:09.233Z,3.97
2022-11-05T04:47:35.668Z,5.18
2022-11-05T04:50:02.124Z,4.43
2022-11-05T04:52:28.871Z,4.97
2022-11-05T04:54:55.322Z,4.25
2022-11-05T04:57:21.792Z,4.97
2022-11-05T04:59:49.476Z,4.63
2022-11-05T05:02:16.015Z,4.68
2022-11-05T05:04:42.503Z,4.72
2022-11-05T05:07:08.928Z,4.78
2022-11-05T05:09:35.358Z,4.40
2022-11-05T05:12:02.556Z,4.53
2022-11-05T05:14:29.042Z,4.82
2022-11-05T05:16:55.495Z,4.80
2022-11-05T05:19:24.205Z,4.75
2022-11-05T05:21:50.665Z,4.78
2022-11-05T05:24:19.184Z,4.65
2022-11-05T05:26:48.555Z,4.47
2022-11-05T05:31:42.074Z,4.15
2022-11-05T05:34:11.791Z,4.97
2022-11-05T05:36:38.315Z,4.70
2022-11-05T05:39:06.327Z,4.95
2022-11-05T05:41:33.047Z,4.60
2022-11-05T05:43:59.650Z,4.43
2022-11-05T05:46:26.145Z,4.70
2022-11-05T05:48:52.673Z,4.07
2022-11-05T05:51:19.739Z,4.65
2022-11-05T05:53:46.339Z,4.47
2022-11-05T05:56:15.361Z,3.83
2022-11-05T05:58:41.914Z,4.70
2022-11-05T06:01:17.242Z,4.63
2022-11-05T06:03:45.419Z,3.97
2022-11-05T06:06:15.309Z,4.97
2022-11-05T06:08:42.755Z,5.20
2022-11-05T06:11:09.588Z,4.20
2022-11-05T06:13:37.042Z,4.82
2022-11-05T06:16:08.410Z,4.25
2022-11-05T06:18:36.140Z,4.32
2022-11-05T06:21:10.552Z,4.22
2022-11-05T06:23:39.229Z,4.97
2022-11-05T06:26:08.155Z,4.72
2022-11-05T06:28:35.173Z,4.20
2022-11-05T06:31:01.812Z,4.47
2022-11-05T06:33:28.251Z,5.00
2022-11-05T06:35:54.959Z,4.28
2022-11-05T06:38:21.510Z,4.30
2022-11-05T06:40:47.970Z,5.55
2022-11-05T06:43:14.596Z,3.95
2022-11-05T06:45:41.299Z,4.50
2022-11-05T06:48:07.839Z,5.03
2022-11-05T06:50:34.598Z,5.20
2022-11-05T06:53:03.756Z,5.22
2022-11-05T06:55:31.591Z,4.53
2022-11-05T06:57:58.183Z,5.40
2022-11-05T07:00:24.664Z,5.85
2022-11-05T07:02:51.158Z,5.80
2022-11-05T07:05:17.665Z,5.82
2022-11-05T07:07:45.314Z,5.18
2022-11-05T07:10:14.482Z,5.03
2022-11-05T07:12:40.957Z,5.47
2022-11-05T07:15:08.251Z,5.22
2022-11-05T07:17:34.784Z,5.55
2022-11-05T07:20:01.256Z,6.15
2022-11-05T07:22:27.715Z,6.10
2022-11-05T07:24:54.119Z,6.43
2022-11-05T07:27:20.785Z,6.35
2022-11-05T07:29:47.244Z,6.72
2022-11-05T07:32:13.739Z,6.05
2022-11-05T07:34:40.302Z,6.13
2022-11-05T07:37:06.983Z,6.15
2022-11-05T07:39:33.461Z,6.40
2022-11-05T07:42:00.045Z,6.00
2022-11-05T07:44:26.563Z,6.93
2022-11-05T07:46:53.126Z,6.45
2022-11-05T07:49:19.617Z,6.18
2022-11-05T07:51:46.077Z,6.10
2022-11-05T07:54:12.554Z,6.80
2022-11-05T07:56:39.074Z,5.40
2022-11-05T07:59:05.539Z,6.93
2022-11-05T08:01:32.218Z,6.57
2022-11-05T08:03:58.820Z,6.15
2022-11-05T08:06:25.258Z,6.72
2022-11-05T08:08:51.779Z,5.47
2022-11-05T08:11:18.888Z,6.15
2022-11-05T08:13:45.436Z,6.07
2022-11-05T08:16:11.974Z,6.03
2022-11-05T08:18:38.480Z,5.53
2022-11-05T08:21:05.771Z,5.65
2022-11-05T08:23:32.341Z,5.68
2022-11-05T08:26:02.201Z,5.40
2022-11-05T08:28:28.660Z,5.35
2022-11-05T08:30:56.825Z,5.38
2022-11-05T08:33:24.721Z,5.35
2022-11-05T08:35:51.843Z,5.05
2022-11-05T08:38:20.073Z,4.85
2022-11-05T08:40:54.323Z,4.35
2022-11-05T08:43:21.106Z,5.47
2022-11-05T08:45:47.861Z,5.63
2022-11-05T08:48:16.755Z,4.90
2022-11-05T08:50:44.813Z,4.75
2022-11-05T08:53:12.502Z,4.55
2022-11-05T08:55:39.227Z,4.82
2022-11-05T08:58:10.582Z,5.10
2022-11-05T09:00:38.213Z,4.72
2022-11-05T09:03:07.075Z,4.50
2022-11-05T09:05:38.762Z,4.95
2022-11-05T09:08:12.884Z,4.90
2022-11-05T09:10:40.917Z,5.10
2022-11-05T09:13:11.748Z,4.65
2022-11-05T09:15:41.496Z,3.67
2022-11-05T09:18:11.688Z,4.65
2022-11-05T09:20:39.972Z,4.53
2022-11-05T09:23:07.421Z,5.00
2022-11-05T09:25:34.404Z,4.40
2022-11-05T09:28:07.884Z,4.47
2022-11-05T09:30:34.367Z,4.65
2022-11-05T09:33:01.005Z,3.75
2022-11-05T09:35:27.446Z,4.75
2022-11-05T09:37:59.734Z,3.83
2022-11-05T09:40:31.709Z,4.95
2022-11-05T09:42:58.537Z,4.30
2022-11-05T09:45:28.307Z,3.75
2022-11-05T09:48:07.575Z,3.65
2022-11-05T09:50:39.099Z,3.85
2022-11-05T09:53:05.945Z,4.43
2022-11-05T09:55:37.233Z,3.58
2022-11-05T09:58:15.287Z,4.32
2022-11-05T10:00:42.484Z,4.53
2022-11-05T10:03:17.574Z,3.63
2022-11-05T10:05:45.645Z,3.72
2022-11-05T10:08:23.644Z,3.80
2022-11-05T10:10:58.949Z,3.70
2022-11-05T10:13:29.393Z,3.65
2022-11-05T10:16:05.039Z,3.50
2022-11-05T10:18:33.458Z,3.53
2022-11-05T10:21:00.496Z,3.75
2022-11-05T10:23:28.032Z,3.88
2022-11-05T10:26:05.718Z,3.33
2022-11-05T10:28:34.066Z,3.67
2022-11-05T10:31:13.609Z,3.40
2022-11-05T10:33:44.360Z,3.22
2022-11-05T10:36:20.833Z,3.97
2022-11-05T10:38:47.325Z,3.10
2022-11-05T10:41:42.937Z,3.85
2022-11-05T10:44:50.748Z,3.30
2022-11-05T10:47:39.471Z,3.53
2022-11-05T10:50:21.504Z,3.30
2022-11-05T10:52:57.192Z,3.65
2022-11-05T10:55:32.836Z,3.65
2022-11-05T10:58:15.640Z,4.00
2022-11-05T11:00:51.999Z,3.42
2022-11-05T11:03:33.783Z,3.60
2022-11-05T11:06:07.591Z,3.83
2022-11-05T11:08:36.652Z,4.00
2022-11-05T11:11:06.654Z,3.60
2022-11-05T11:14:01.130Z,3.60
2022-11-05T11:16:32.079Z,3.53
2022-11-05T11:19:00.917Z,3.22
2022-11-05T11:24:06.890Z,3.13
2022-11-05T11:26:37.953Z,4.70
2022-11-05T11:29:19.709Z,3.10
2022-11-05T11:31:46.363Z,2.88
2022-11-05T11:34:27.640Z,3.30
2022-11-05T11:37:15.345Z,3.10
2022-11-05T11:39:53.117Z,2.30
2022-11-05T11:42:34.677Z,1.70
2022-11-05T11:45:35.585Z,1.85
2022-11-05T11:48:06.141Z,2.72
2022-11-05T11:50:36.818Z,2.60
2022-11-05T11:53:33.503Z,1.80
2022-11-05T11:56:15.814Z,2.17
2022-11-05T11:58:43.855Z,2.50
2022-11-05T12:01:41.204Z,2.13
2022-11-05T12:04:19.934Z,2.00
2022-11-05T12:07:12.393Z,2.17
2022-11-05T12:09:47.977Z,2.35
2022-11-05T12:12:16.303Z,2.28
2022-11-05T12:15:02.698Z,2.60
2022-11-05T12:17:58.094Z,2.50
2022-11-05T12:20:57.847Z,2.42
2022-11-05T12:23:45.962Z,2.50
2022-11-05T12:26:36.445Z,2.53
2022-11-05T12:29:41.006Z,2.45
2022-11-05T12:32:37.508Z,2.65
2022-11-05T12:35:04.044Z,2.20
2022-11-05T12:37:39.925Z,2.40
2022-11-05T12:40:12.342Z,2.42
2022-11-05T12:42:57.031Z,2.20
2022-11-05T12:46:20.628Z,2.63
2022-11-05T12:49:10.688Z,2.45
2022-11-05T12:51:52.308Z,2.60
2022-11-05T12:54:40.544Z,2.35
2022-11-05T12:57:11.893Z,2.50
2022-11-05T13:00:12.245Z,2.90
2022-11-05T13:02:53.317Z,2.38
2022-11-05T13:05:41.637Z,2.25
2022-11-05T13:08:08.171Z,2.13
2022-11-05T13:10:40.720Z,2.05
2022-11-05T13:13:38.563Z,2.25
2022-11-05T13:16:43.137Z,2.00
2022-11-05T13:19:21.617Z,2.10
2022-11-05T13:21:56.614Z,2.28
2022-11-05T13:24:39.100Z,1.88
2022-11-05T13:27:32.040Z,1.90
2022-11-05T13:30:05.156Z,2.30
2022-11-05T13:32:36.286Z,3.42
2022-11-05T13:35:27.191Z,2.80
2022-11-05T13:38:18.170Z,2.33
2022-11-05T13:40:47.578Z,2.33
2022-11-05T13:43:41.269Z,2.42
2022-11-05T13:46:35.344Z,2.55
2022-11-05T13:49:34.933Z,3.30
2022-11-05T13:52:35.445Z,2.53
2022-11-05T13:55:24.842Z,2.40
2022-11-05T13:58:27.774Z,2.05
2022-11-05T14:01:16.039Z,2.05
2022-11-05T14:03:51.113Z,1.92
2022-11-05T14:06:26.000Z,1.80
2022-11-05T14:08:58.723Z,2.10
2022-11-05T14:11:33.150Z,2.03
2022-11-05T14:14:04.047Z,2.42
2022-11-05T14:16:48.660Z,2.50
2022-11-05T14:19:18.128Z,2.20
2022-11-05T14:21:55.336Z,2.20
2022-11-05T14:24:21.764Z,1.98
2022-11-05T14:27:00.184Z,2.28
2022-11-05T14:29:46.955Z,2.35
2022-11-05T14:32:23.693Z,2.65
2022-11-05T14:35:04.170Z,2.22
2022-11-05T14:37:52.389Z,2.40
2022-11-05T14:40:21.774Z,2.03
2022-11-05T14:42:51.924Z,1.98
2022-11-05T14:45:27.601Z,2.00
2022-11-05T14:47:57.646Z,2.50
2022-11-05T14:50:31.077Z,2.20
2022-11-05T14:53:02.850Z,2.20
2022-11-05T14:55:34.436Z,2.17
2022-11-05T14:58:04.991Z,1.90
2022-11-05T15:00:32.465Z,2.00
2022-11-05T15:03:02.487Z,2.35
2022-11-05T15:05:33.276Z,2.17
2022-11-05T15:08:20.149Z,2.20
2022-11-05T15:10:49.062Z,2.50
2022-11-05T15:13:30.738Z,2.75
2022-11-05T15:15:58.138Z,2.60
2022-11-05T15:18:35.383Z,2.30
2022-11-05T15:21:04.818Z,1.80
2022-11-05T15:23:42.062Z,2.25
2022-11-05T15:26:27.100Z,2.60
2022-11-05T15:28:55.435Z,2.13
2022-11-05T15:31:26.477Z,1.80
2022-11-05T15:34:30.830Z,1.33
2022-11-05T15:37:25.407Z,1.67
2022-11-05T15:39:54.155Z,1.58
2022-11-05T15:42:29.885Z,1.55
2022-11-05T15:44:58.800Z,1.80
2022-11-05T15:47:30.261Z,1.88
2022-11-05T15:49:59.192Z,2.22
2022-11-05T15:52:34.745Z,2.38
2022-11-05T15:55:13.413Z,1.35
2022-11-05T15:57:50.619Z,1.38
2022-11-05T16:00:20.674Z,1.55
2022-11-05T16:02:53.705Z,1.38
2022-11-05T16:05:21.150Z,1.40
2022-11-05T16:07:48.743Z,1.30
2022-11-05T16:10:21.861Z,1.35
2022-11-05T16:12:49.045Z,1.33
2022-11-05T16:15:15.504Z,1.55
2022-11-05T16:17:46.774Z,1.25
2022-11-05T16:20:24.751Z,1.77
2022-11-05T16:22:54.535Z,1.42
2022-11-05T16:25:27.944Z,1.50
2022-11-05T16:27:55.931Z,1.92
2022-11-05T16:30:23.249Z,1.83
2022-11-05T16:32:50.109Z,1.92
2022-11-05T16:35:23.176Z,2.03
2022-11-05T16:37:52.240Z,1.83
2022-11-05T16:40:25.169Z,1.92
2022-11-05T16:42:53.969Z,2.15
2022-11-05T16:45:24.006Z,2.33
2022-11-05T16:47:50.952Z,2.20
2022-11-05T16:50:29.958Z,2.10
2022-11-05T16:52:56.469Z,2.30
2022-11-05T16:55:22.895Z,2.05
2022-11-05T16:57:54.463Z,2.47
2022-11-05T17:00:22.312Z,2.42
2022-11-05T17:02:49.447Z,2.40
2022-11-05T17:05:28.410Z,2.33
2022-11-05T17:07:55.462Z,2.15
2022-11-05T17:10:23.233Z,1.98
2022-11-05T17:12:50.617Z,1.92
2022-11-05T17:15:19.861Z,2.38
2022-11-05T17:17:46.503Z,1.85
2022-11-05T17:20:23.265Z,1.70
2022-11-05T17:22:49.794Z,2.00
2022-11-05T17:25:16.330Z,1.80
2022-11-05T17:27:42.974Z,1.80
2022-11-05T17:30:11.133Z,2.10
2022-11-05T17:32:37.725Z,2.00
2022-11-05T17:35:04.926Z,1.98
2022-11-05T17:37:31.451Z,2.00
2022-11-05T17:39:57.961Z,2.30
2022-11-05T17:42:24.453Z,2.22
2022-11-05T17:44:51.033Z,1.80
2022-11-05T17:47:17.989Z,2.22
2022-11-05T17:49:44.603Z,1.90
2022-11-05T17:52:11.141Z,1.83
2022-11-05T17:54:37.764Z,2.03
2022-11-05T17:57:05.993Z,1.98
2022-11-05T17:59:32.807Z,2.30
2022-11-05T18:01:59.456Z,1.92
2022-11-05T18:04:26.135Z,2.10
2022-11-05T18:06:52.861Z,1.90
2022-11-05T18:09:19.417Z,1.90
2022-11-05T18:11:46.206Z,2.42
2022-11-05T18:14:13.014Z,2.03
2022-11-05T18:16:39.511Z,2.10
2022-11-05T18:19:06.058Z,2.03
2022-11-05T18:21:32.526Z,2.15
2022-11-05T18:24:02.729Z,1.77
2022-11-05T18:26:29.176Z,1.65
2022-11-05T18:28:55.637Z,2.03
2022-11-05T18:31:22.271Z,1.85
2022-11-05T18:33:50.265Z,1.80
2022-11-05T18:36:27.502Z,1.80
2022-11-05T18:38:54.480Z,1.90
2022-11-05T18:41:21.840Z,1.80
2022-11-05T18:43:48.525Z,2.15
2022-11-05T18:46:35.978Z,2.00
2022-11-05T18:49:02.451Z,1.83
2022-11-05T18:51:29.027Z,1.75
2022-11-05T18:53:55.732Z,1.80
2022-11-05T18:56:22.254Z,2.08
2022-11-05T18:58:49.832Z,1.85
2022-11-05T19:01:21.870Z,1.95
2022-11-05T19:03:49.435Z,2.50
2022-11-05T19:06:15.995Z,2.22
2022-11-05T19:08:42.714Z,2.17
2022-11-05T19:11:11.957Z,2.20
2022-11-05T19:16:15.409Z,2.20
2022-11-05T19:18:42.285Z,2.65
2022-11-05T19:21:11.105Z,3.25
2022-11-05T19:23:39.041Z,2.53
2022-11-05T19:26:11.279Z,2.60
2022-11-05T19:28:37.824Z,2.58
2022-11-05T19:31:05.445Z,2.63
2022-11-05T19:33:32.081Z,2.45
2022-11-05T19:35:59.634Z,2.45
2022-11-05T19:38:26.263Z,2.28
2022-11-05T19:40:52.921Z,2.55
2022-11-05T19:43:19.411Z,2.25
2022-11-05T19:45:46.454Z,2.60
2022-11-05T19:48:19.093Z,2.63
2022-11-05T19:50:46.236Z,2.53
2022-11-05T19:53:12.709Z,2.42
2022-11-05T19:55:42.410Z,1.98
2022-11-05T19:58:10.397Z,2.33
2022-11-05T20:00:38.244Z,2.58
2022-11-05T20:03:05.130Z,2.03
2022-11-05T20:05:33.770Z,2.25
2022-11-05T20:08:00.558Z,2.25
2022-11-05T20:10:28.557Z,2.83
2022-11-05T20:12:55.217Z,2.70
2022-11-05T20:15:21.961Z,2.63
2022-11-05T20:17:51.309Z,2.58
2022-11-05T20:20:18.614Z,2.53
2022-11-05T20:22:45.446Z,2.33
2022-11-05T20:25:12.766Z,2.75
2022-11-05T20:27:39.881Z,2.58
2022-11-05T20:30:07.071Z,3.10
2022-11-05T20:32:33.632Z,2.58
2022-11-05T20:35:00.420Z,2.38
2022-11-05T20:37:26.943Z,2.78
2022-11-05T20:39:53.812Z,2.45
2022-11-05T20:42:20.397Z,2.70
2022-11-05T20:44:47.314Z,2.30
2022-11-05T20:47:14.274Z,2.20
2022-11-05T20:49:41.212Z,2.30
2022-11-05T20:52:07.671Z,2.47
2022-11-05T20:54:34.418Z,3.22
2022-11-05T20:57:01.048Z,3.28
2022-11-05T20:59:27.586Z,2.72
2022-11-05T21:01:54.217Z,2.47
2022-11-05T21:04:20.880Z,2.65
2022-11-05T21:06:47.377Z,2.60
2022-11-05T21:09:14.051Z,2.88
2022-11-05T21:12:01.023Z,2.70
2022-11-05T21:14:27.478Z,2.20
2022-11-05T21:16:53.983Z,2.58
2022-11-05T21:19:21.642Z,2.72
2022-11-05T21:21:48.106Z,2.45
2022-11-05T21:24:14.750Z,2.42
2022-11-05T21:26:41.450Z,2.28
2022-11-05T21:29:08.300Z,2.28
2022-11-05T21:31:37.401Z,2.65
2022-11-05T21:34:04.213Z,2.33
2022-11-05T21:36:30.678Z,2.50
2022-11-05T21:38:57.189Z,2.90
2022-11-05T21:41:23.792Z,2.63
2022-11-05T21:43:50.476Z,3.00
2022-11-05T21:46:17.138Z,2.80
2022-11-05T21:48:43.766Z,2.70
2022-11-05T21:51:29.840Z,2.92
2022-11-05T21:54:15.041Z,2.63
2022-11-05T21:57:01.810Z,2.78
2022-11-05T21:59:46.859Z,2.33
2022-11-05T22:02:24.845Z,2.95
2022-11-05T22:04:53.525Z,2.40
2022-11-05T22:07:22.565Z,2.70
2022-11-05T22:09:49.445Z,2.40
2022-11-05T22:12:16.260Z,2.63
2022-11-05T22:14:43.524Z,2.95
2022-11-05T22:17:11.964Z,2.65
2022-11-05T22:19:38.707Z,2.65
2022-11-05T22:22:06.773Z,2.47
2022-11-05T22:24:34.557Z,3.10
2022-11-05T22:27:02.851Z,1.77
2022-11-05T22:29:29.294Z,3.30
2022-11-05T22:31:56.851Z,2.72
2022-11-05T22:34:24.132Z,2.67
2022-11-05T22:36:51.227Z,2.65
2022-11-05T22:39:17.860Z,2.90
2022-11-05T22:41:44.655Z,2.42
2022-11-05T22:44:11.329Z,2.55
2022-11-05T22:46:38.292Z,2.38
2022-11-05T22:49:06.318Z,2.63
2022-11-05T22:51:34.839Z,2.50
2022-11-05T22:54:02.608Z,2.50
2022-11-05T22:56:31.616Z,2.28
2022-11-05T22:58:58.381Z,2.72
2022-11-05T23:01:26.355Z,2.55
2022-11-05T23:03:54.804Z,2.35
2022-11-05T23:06:42.122Z,2.50
2022-11-05T23:09:46.406Z,2.17
2022-11-05T23:12:30.053Z,2.30
2022-11-05T23:14:58.375Z,2.13
2022-11-05T23:17:44.262Z,2.55
2022-11-05T23:20:38.524Z,2.13
2022-11-05T23:23:28.481Z,2.42
2022-11-05T23:26:21.150Z,1.70
2022-11-05T23:28:47.580Z,2.15
2022-11-05T23:31:32.469Z,2.20
2022-11-05T23:33:58.886Z,2.00
2022-11-05T23:36:44.139Z,2.35
2022-11-05T23:39:10.635Z,1.98
2022-11-05T23:41:55.703Z,2.30
2022-11-05T23:44:40.494Z,2.40
2022-11-05T23:47:25.981Z,2.42
2022-11-05T23:49:52.431Z,2.28
2022-11-05T23:52:18.898Z,2.08
2022-11-05T23:54:45.351Z,2.80
2022-11-05T23:57:11.797Z,2.30
2022-11-05T23:59:38.207Z,2.28
